sensor_id;sensor_type;location;lat;lon;timestamp;P1;durP1;ratioP1;P2;durP2;ratioP2
32894;SDS011;19251;49.484;8.260;2022-11-18T00:04:38;5.10;;;1.67;;
32894;SDS011;19251;49.484;8.260;2022-11-18T00:09:40;6.05;;;1.37;;
32894;SDS011;19251;49.484;8.260;2022-11-18T00:14:42;15.37;;;1.90;;
32894;SDS011;19251;49.484;8.260;2022-11-18T00:19:45;3.65;;;1.90;;
32894;SDS011;19251;49.484;8.260;2022-11-18T00:24:47;1.73;;;1.20;;
32894;SDS011;19251;49.484;8.260;2022-11-18T00:29:49;7.17;;;1.57;;
32894;SDS011;19251;49.484;8.260;2022-11-18T00:34:51;1.70;;;1.20;;
32894;SDS011;19251;49.484;8.260;2022-11-18T00:39:53;4.97;;;0.98;;
32894;SDS011;19251;49.484;8.260;2022-11-18T00:44:55;2.62;;;2.25;;
32894;SDS011;19251;49.484;8.260;2022-11-18T00:49:57;4.30;;;2.10;;
32894;SDS011;19251;49.484;8.260;2022-11-18T00:54:59;4.43;;;1.30;;
32894;SDS011;19251;49.484;8.260;2022-11-18T01:00:02;2.10;;;1.17;;
32894;SDS011;19251;49.484;8.260;2022-11-18T01:05:04;7.65;;;1.90;;
32894;SDS011;19251;49.484;8.260;2022-11-18T01:10:07;1.83;;;1.60;;
32894;SDS011;19251;49.484;8.260;2022-11-18T01:15:09;2.95;;;1.90;;
32894;SDS011;19251;49.484;8.260;2022-11-18T01:20:11;7.30;;;2.08;;
32894;SDS011;19251;49.484;8.260;2022-11-18T01:25:14;3.35;;;2.10;;
32894;SDS011;19251;49.484;8.260;2022-11-18T01:30:16;3.78;;;1.80;;
32894;SDS011;19251;49.484;8.260;2022-11-18T01:35:19;4.43;;;2.55;;
32894;SDS011;19251;49.484;8.260;2022-11-18T01:40:21;3.47;;;2.33;;
32894;SDS011;19251;49.484;8.260;2022-11-18T01:45:25;4.82;;;1.87;;
32894;SDS011;19251;49.484;8.260;2022-11-18T01:50:32;4.80;;;2.55;;
32894;SDS011;19251;49.484;8.260;2022-11-18T01:55:44;3.03;;;2.20;;
32894;SDS011;19251;49.484;8.260;2022-11-18T02:00:49;5.10;;;2.15;;
32894;SDS011;19251;49.484;8.260;2022-11-18T02:05:51;4.60;;;2.62;;
32894;SDS011;19251;49.484;8.260;2022-11-18T02:10:55;8.35;;;3.50;;
32894;SDS011;19251;49.484;8.260;2022-11-18T02:16:17;3.42;;;2.37;;
32894;SDS011;19251;49.484;8.260;2022-11-18T02:32:39;21.50;;;7.95;;
32894;SDS011;19251;49.484;8.260;2022-11-18T02:42:51;18.40;;;6.80;;
32894;SDS011;19251;49.484;8.260;2022-11-18T02:48:00;10.80;;;4.30;;
32894;SDS011;19251;49.484;8.260;2022-11-18T02:53:06;7.00;;;3.35;;
32894;SDS011;19251;49.484;8.260;2022-11-18T02:58:11;4.40;;;2.60;;
32894;SDS011;19251;49.484;8.260;2022-11-18T03:03:31;8.50;;;2.80;;
32894;SDS011;19251;49.484;8.260;2022-11-18T03:08:40;7.30;;;2.85;;
32894;SDS011;19251;49.484;8.260;2022-11-18T03:13:55;4.10;;;2.53;;
32894;SDS011;19251;49.484;8.260;2022-11-18T03:24:29;3.30;;;2.05;;
32894;SDS011;19251;49.484;8.260;2022-11-18T03:29:35;4.60;;;2.40;;
32894;SDS011;19251;49.484;8.260;2022-11-18T03:34:42;4.10;;;2.10;;
32894;SDS011;19251;49.484;8.260;2022-11-18T03:40:05;3.50;;;2.50;;
32894;SDS011;19251;49.484;8.260;2022-11-18T03:45:18;4.95;;;2.03;;
32894;SDS011;19251;49.484;8.260;2022-11-18T03:50:30;4.75;;;2.00;;
32894;SDS011;19251;49.484;8.260;2022-11-18T03:55:38;2.30;;;1.80;;
32894;SDS011;19251;49.484;8.260;2022-11-18T04:00:43;2.50;;;1.95;;
32894;SDS011;19251;49.484;8.260;2022-11-18T04:05:48;4.40;;;2.55;;
32894;SDS011;19251;49.484;8.260;2022-11-18T04:11:00;4.95;;;1.60;;
32894;SDS011;19251;49.484;8.260;2022-11-18T04:16:42;7.20;;;2.35;;
32894;SDS011;19251;49.484;8.260;2022-11-18T04:21:46;3.85;;;2.00;;
32894;SDS011;19251;49.484;8.260;2022-11-18T04:26:49;4.85;;;2.00;;
32894;SDS011;19251;49.484;8.260;2022-11-18T04:31:51;9.00;;;2.05;;
32894;SDS011;19251;49.484;8.260;2022-11-18T04:36:53;4.10;;;1.12;;
32894;SDS011;19251;49.484;8.260;2022-11-18T04:41:55;0.73;;;0.62;;
32894;SDS011;19251;49.484;8.260;2022-11-18T04:46:59;2.95;;;0.60;;
32894;SDS011;19251;49.484;8.260;2022-11-18T04:52:04;1.35;;;0.35;;
32894;SDS011;19251;49.484;8.260;2022-11-18T04:57:06;0.43;;;0.20;;
32894;SDS011;19251;49.484;8.260;2022-11-18T05:02:09;1.90;;;0.43;;
32894;SDS011;19251;49.484;8.260;2022-11-18T05:07:12;0.20;;;0.20;;
32894;SDS011;19251;49.484;8.260;2022-11-18T05:12:16;1.30;;;0.30;;
32894;SDS011;19251;49.484;8.260;2022-11-18T05:17:37;0.80;;;0.25;;
32894;SDS011;19251;49.484;8.260;2022-11-18T05:22:40;1.45;;;0.30;;
32894;SDS011;19251;49.484;8.260;2022-11-18T05:27:42;2.70;;;0.50;;
32894;SDS011;19251;49.484;8.260;2022-11-18T05:32:45;0.20;;;0.10;;
32894;SDS011;19251;49.484;8.260;2022-11-18T05:37:48;0.45;;;0.10;;
32894;SDS011;19251;49.484;8.260;2022-11-18T05:42:51;0.35;;;0.00;;
32894;SDS011;19251;49.484;8.260;2022-11-18T05:48:11;0.85;;;0.10;;
32894;SDS011;19251;49.484;8.260;2022-11-18T05:53:14;2.42;;;0.40;;
32894;SDS011;19251;49.484;8.260;2022-11-18T05:58:17;0.10;;;0.10;;
32894;SDS011;19251;49.484;8.260;2022-11-18T06:03:23;0.57;;;0.20;;
32894;SDS011;19251;49.484;8.260;2022-11-18T06:08:36;0.00;;;0.00;;
32894;SDS011;19251;49.484;8.260;2022-11-18T06:13:44;0.00;;;0.00;;
32894;SDS011;19251;49.484;8.260;2022-11-18T06:18:51;0.30;;;0.00;;
32894;SDS011;19251;49.484;8.260;2022-11-18T06:23:53;0.30;;;0.00;;
32894;SDS011;19251;49.484;8.260;2022-11-18T06:28:55;0.37;;;0.22;;
32894;SDS011;19251;49.484;8.260;2022-11-18T06:33:58;1.50;;;0.15;;
32894;SDS011;19251;49.484;8.260;2022-11-18T06:39:03;0.20;;;0.10;;
32894;SDS011;19251;49.484;8.260;2022-11-18T06:44:06;3.57;;;0.10;;
32894;SDS011;19251;49.484;8.260;2022-11-18T06:49:08;0.00;;;0.00;;
32894;SDS011;19251;49.484;8.260;2022-11-18T06:54:10;2.60;;;0.22;;
32894;SDS011;19251;49.484;8.260;2022-11-18T06:59:13;0.30;;;0.10;;
32894;SDS011;19251;49.484;8.260;2022-11-18T07:09:17;1.27;;;0.10;;
32894;SDS011;19251;49.484;8.260;2022-11-18T07:19:22;0.67;;;0.30;;
32894;SDS011;19251;49.484;8.260;2022-11-18T07:24:24;0.20;;;0.15;;
32894;SDS011;19251;49.484;8.260;2022-11-18T07:29:26;1.83;;;0.60;;
32894;SDS011;19251;49.484;8.260;2022-11-18T07:34:28;0.68;;;0.30;;
32894;SDS011;19251;49.484;8.260;2022-11-18T07:39:30;1.42;;;0.40;;
32894;SDS011;19251;49.484;8.260;2022-11-18T07:44:32;0.88;;;0.30;;
32894;SDS011;19251;49.484;8.260;2022-11-18T07:49:34;1.00;;;0.33;;
32894;SDS011;19251;49.484;8.260;2022-11-18T07:54:36;2.72;;;0.45;;
32894;SDS011;19251;49.484;8.260;2022-11-18T07:59:38;0.43;;;0.43;;
32894;SDS011;19251;49.484;8.260;2022-11-18T08:04:41;0.88;;;0.80;;
32894;SDS011;19251;49.484;8.260;2022-11-18T08:09:43;3.45;;;1.87;;
32894;SDS011;19251;49.484;8.260;2022-11-18T08:14:45;1.42;;;0.90;;
32894;SDS011;19251;49.484;8.260;2022-11-18T08:19:47;1.95;;;1.48;;
32894;SDS011;19251;49.484;8.260;2022-11-18T08:24:49;0.40;;;0.40;;
32894;SDS011;19251;49.484;8.260;2022-11-18T08:29:51;0.62;;;0.43;;
32894;SDS011;19251;49.484;8.260;2022-11-18T08:34:53;2.40;;;1.95;;
32894;SDS011;19251;49.484;8.260;2022-11-18T08:39:55;2.58;;;1.17;;
32894;SDS011;19251;49.484;8.260;2022-11-18T08:44:57;6.47;;;0.82;;
32894;SDS011;19251;49.484;8.260;2022-11-18T08:55:04;2.30;;;0.65;;
32894;SDS011;19251;49.484;8.260;2022-11-18T09:00:06;0.88;;;0.40;;
32894;SDS011;19251;49.484;8.260;2022-11-18T09:05:09;12.85;;;1.00;;
32894;SDS011;19251;49.484;8.260;2022-11-18T09:10:11;4.57;;;0.70;;
32894;SDS011;19251;49.484;8.260;2022-11-18T09:15:13;4.22;;;0.60;;
32894;SDS011;19251;49.484;8.260;2022-11-18T09:25:18;3.10;;;0.90;;
32894;SDS011;19251;49.484;8.260;2022-11-18T09:30:20;1.85;;;0.50;;
32894;SDS011;19251;49.484;8.260;2022-11-18T09:35:22;0.95;;;0.80;;
32894;SDS011;19251;49.484;8.260;2022-11-18T09:40:25;2.28;;;0.98;;
32894;SDS011;19251;49.484;8.260;2022-11-18T09:45:30;2.03;;;0.97;;
32894;SDS011;19251;49.484;8.260;2022-11-18T09:50:38;2.00;;;1.00;;
32894;SDS011;19251;49.484;8.260;2022-11-18T09:55:56;1.10;;;0.83;;
32894;SDS011;19251;49.484;8.260;2022-11-18T10:00:59;2.55;;;0.90;;
32894;SDS011;19251;49.484;8.260;2022-11-18T10:11:25;1.10;;;0.87;;
32894;SDS011;19251;49.484;8.260;2022-11-18T10:27:32;4.17;;;1.03;;
32894;SDS011;19251;49.484;8.260;2022-11-18T10:37:59;1.90;;;0.93;;
32894;SDS011;19251;49.484;8.260;2022-11-18T10:54:13;2.07;;;0.87;;
32894;SDS011;19251;49.484;8.260;2022-11-18T11:04:30;2.93;;;0.77;;
32894;SDS011;19251;49.484;8.260;2022-11-18T11:09:32;3.47;;;0.85;;
32894;SDS011;19251;49.484;8.260;2022-11-18T11:14:51;1.17;;;0.70;;
32894;SDS011;19251;49.484;8.260;2022-11-18T11:20:18;1.60;;;0.75;;
32894;SDS011;19251;49.484;8.260;2022-11-18T11:30:30;6.43;;;0.70;;
32894;SDS011;19251;49.484;8.260;2022-11-18T11:41:24;3.08;;;1.23;;
32894;SDS011;19251;49.484;8.260;2022-11-18T11:52:48;2.75;;;0.90;;
32894;SDS011;19251;49.484;8.260;2022-11-18T11:58:06;3.33;;;0.68;;
32894;SDS011;19251;49.484;8.260;2022-11-18T12:09:00;0.80;;;0.47;;
32894;SDS011;19251;49.484;8.260;2022-11-18T12:19:47;1.90;;;0.70;;
32894;SDS011;19251;49.484;8.260;2022-11-18T12:24:50;2.78;;;0.70;;
32894;SDS011;19251;49.484;8.260;2022-11-18T12:29:53;3.03;;;0.68;;
32894;SDS011;19251;49.484;8.260;2022-11-18T12:50:46;4.28;;;0.60;;
32894;SDS011;19251;49.484;8.260;2022-11-18T12:55:53;2.40;;;0.55;;
32894;SDS011;19251;49.484;8.260;2022-11-18T13:01:06;2.92;;;0.90;;
32894;SDS011;19251;49.484;8.260;2022-11-18T13:06:22;5.15;;;1.10;;
32894;SDS011;19251;49.484;8.260;2022-11-18T13:11:26;1.70;;;0.73;;
32894;SDS011;19251;49.484;8.260;2022-11-18T13:16:46;17.45;;;1.50;;
32894;SDS011;19251;49.484;8.260;2022-11-18T13:22:15;5.45;;;1.17;;
32894;SDS011;19251;49.484;8.260;2022-11-18T13:27:44;4.15;;;1.35;;
32894;SDS011;19251;49.484;8.260;2022-11-18T13:32:51;2.00;;;0.60;;
32894;SDS011;19251;49.484;8.260;2022-11-18T13:37:59;4.32;;;1.35;;
32894;SDS011;19251;49.484;8.260;2022-11-18T13:43:03;6.43;;;1.10;;
32894;SDS011;19251;49.484;8.260;2022-11-18T13:58:42;7.95;;;0.70;;
32894;SDS011;19251;49.484;8.260;2022-11-18T14:04:21;4.55;;;1.23;;
32894;SDS011;19251;49.484;8.260;2022-11-18T14:09:26;2.25;;;0.85;;
32894;SDS011;19251;49.484;8.260;2022-11-18T14:14:31;6.47;;;1.40;;
32894;SDS011;19251;49.484;8.260;2022-11-18T14:19:35;4.05;;;1.00;;
32894;SDS011;19251;49.484;8.260;2022-11-18T14:24:38;4.75;;;1.10;;
32894;SDS011;19251;49.484;8.260;2022-11-18T14:29:48;4.30;;;1.83;;
32894;SDS011;19251;49.484;8.260;2022-11-18T14:35:00;3.47;;;1.60;;
32894;SDS011;19251;49.484;8.260;2022-11-18T14:40:03;7.03;;;2.60;;
32894;SDS011;19251;49.484;8.260;2022-11-18T14:45:06;7.57;;;2.87;;
32894;SDS011;19251;49.484;8.260;2022-11-18T14:50:12;6.65;;;1.92;;
32894;SDS011;19251;49.484;8.260;2022-11-18T14:55:15;11.88;;;4.07;;
32894;SDS011;19251;49.484;8.260;2022-11-18T15:00:17;6.93;;;3.37;;
32894;SDS011;19251;49.484;8.260;2022-11-18T15:05:20;3.20;;;1.10;;
32894;SDS011;19251;49.484;8.260;2022-11-18T15:10:22;3.35;;;1.02;;
32894;SDS011;19251;49.484;8.260;2022-11-18T15:15:24;8.50;;;5.53;;
32894;SDS011;19251;49.484;8.260;2022-11-18T15:20:26;8.13;;;1.58;;
32894;SDS011;19251;49.484;8.260;2022-11-18T15:25:28;3.28;;;1.75;;
32894;SDS011;19251;49.484;8.260;2022-11-18T15:30:30;7.30;;;3.95;;
32894;SDS011;19251;49.484;8.260;2022-11-18T15:35:32;19.10;;;9.57;;
32894;SDS011;19251;49.484;8.260;2022-11-18T15:40:34;18.83;;;2.50;;
32894;SDS011;19251;49.484;8.260;2022-11-18T15:45:37;4.40;;;1.02;;
32894;SDS011;19251;49.484;8.260;2022-11-18T15:50:39;5.65;;;1.45;;
32894;SDS011;19251;49.484;8.260;2022-11-18T15:55:41;5.50;;;1.30;;
32894;SDS011;19251;49.484;8.260;2022-11-18T16:00:43;8.70;;;1.90;;
32894;SDS011;19251;49.484;8.260;2022-11-18T16:05:46;6.15;;;1.45;;
32894;SDS011;19251;49.484;8.260;2022-11-18T16:10:53;5.50;;;1.40;;
32894;SDS011;19251;49.484;8.260;2022-11-18T16:16:20;2.10;;;0.70;;
32894;SDS011;19251;49.484;8.260;2022-11-18T16:21:26;2.03;;;0.83;;
32894;SDS011;19251;49.484;8.260;2022-11-18T16:26:30;2.00;;;0.80;;
32894;SDS011;19251;49.484;8.260;2022-11-18T16:31:33;0.83;;;0.73;;
32894;SDS011;19251;49.484;8.260;2022-11-18T16:36:42;2.80;;;1.13;;
32894;SDS011;19251;49.484;8.260;2022-11-18T16:41:45;5.80;;;0.80;;
32894;SDS011;19251;49.484;8.260;2022-11-18T16:46:48;3.03;;;0.93;;
32894;SDS011;19251;49.484;8.260;2022-11-18T16:51:55;3.20;;;1.07;;
32894;SDS011;19251;49.484;8.260;2022-11-18T16:56:58;6.03;;;1.23;;
32894;SDS011;19251;49.484;8.260;2022-11-18T17:02:00;2.80;;;0.73;;
32894;SDS011;19251;49.484;8.260;2022-11-18T17:07:03;1.45;;;0.60;;
32894;SDS011;19251;49.484;8.260;2022-11-18T17:17:08;2.40;;;0.90;;
32894;SDS011;19251;49.484;8.260;2022-11-18T17:22:10;6.18;;;1.33;;
32894;SDS011;19251;49.484;8.260;2022-11-18T17:27:12;9.03;;;1.47;;
32894;SDS011;19251;49.484;8.260;2022-11-18T17:32:14;7.00;;;1.80;;
32894;SDS011;19251;49.484;8.260;2022-11-18T17:37:17;5.60;;;1.45;;
32894;SDS011;19251;49.484;8.260;2022-11-18T17:42:19;3.87;;;1.67;;
32894;SDS011;19251;49.484;8.260;2022-11-18T17:47:23;7.35;;;3.60;;
32894;SDS011;19251;49.484;8.260;2022-11-18T17:52:26;4.80;;;3.05;;
32894;SDS011;19251;49.484;8.260;2022-11-18T17:57:28;6.13;;;1.40;;
32894;SDS011;19251;49.484;8.260;2022-11-18T18:02:30;2.00;;;0.90;;
32894;SDS011;19251;49.484;8.260;2022-11-18T18:07:32;8.02;;;1.55;;
32894;SDS011;19251;49.484;8.260;2022-11-18T18:12:35;2.72;;;0.98;;
32894;SDS011;19251;49.484;8.260;2022-11-18T18:17:55;4.75;;;1.75;;
32894;SDS011;19251;49.484;8.260;2022-11-18T18:22:58;4.95;;;2.22;;
32894;SDS011;19251;49.484;8.260;2022-11-18T18:28:00;6.28;;;3.12;;
32894;SDS011;19251;49.484;8.260;2022-11-18T18:33:02;7.15;;;2.30;;
32894;SDS011;19251;49.484;8.260;2022-11-18T18:38:04;6.18;;;1.70;;
32894;SDS011;19251;49.484;8.260;2022-11-18T18:43:07;3.03;;;1.37;;
32894;SDS011;19251;49.484;8.260;2022-11-18T18:48:09;3.78;;;1.12;;
32894;SDS011;19251;49.484;8.260;2022-11-18T18:53:11;7.27;;;1.63;;
32894;SDS011;19251;49.484;8.260;2022-11-18T18:58:13;7.68;;;1.42;;
32894;SDS011;19251;49.484;8.260;2022-11-18T19:03:16;2.65;;;1.10;;
32894;SDS011;19251;49.484;8.260;2022-11-18T19:08:18;8.55;;;2.33;;
32894;SDS011;19251;49.484;8.260;2022-11-18T19:13:20;8.53;;;2.30;;
32894;SDS011;19251;49.484;8.260;2022-11-18T19:18:22;4.80;;;1.43;;
32894;SDS011;19251;49.484;8.260;2022-11-18T19:23:24;5.97;;;1.87;;
32894;SDS011;19251;49.484;8.260;2022-11-18T19:28:27;3.15;;;1.30;;
32894;SDS011;19251;49.484;8.260;2022-11-18T19:33:29;3.50;;;1.20;;
32894;SDS011;19251;49.484;8.260;2022-11-18T19:38:31;8.80;;;2.33;;
32894;SDS011;19251;49.484;8.260;2022-11-18T19:43:35;8.10;;;4.20;;
32894;SDS011;19251;49.484;8.260;2022-11-18T19:48:37;8.07;;;3.37;;
32894;SDS011;19251;49.484;8.260;2022-11-18T19:53:39;7.65;;;1.98;;
32894;SDS011;19251;49.484;8.260;2022-11-18T19:58:42;8.85;;;2.35;;
32894;SDS011;19251;49.484;8.260;2022-11-18T20:03:47;5.95;;;1.45;;
32894;SDS011;19251;49.484;8.260;2022-11-18T20:08:51;7.03;;;1.83;;
32894;SDS011;19251;49.484;8.260;2022-11-18T20:13:55;3.47;;;1.23;;
32894;SDS011;19251;49.484;8.260;2022-11-18T20:18:58;4.85;;;1.35;;
32894;SDS011;19251;49.484;8.260;2022-11-18T20:24:09;8.70;;;0.63;;
32894;SDS011;19251;49.484;8.260;2022-11-18T20:29:16;3.27;;;1.07;;
32894;SDS011;19251;49.484;8.260;2022-11-18T20:34:19;7.40;;;1.40;;
32894;SDS011;19251;49.484;8.260;2022-11-18T20:39:22;6.35;;;1.20;;
32894;SDS011;19251;49.484;8.260;2022-11-18T20:44:24;7.30;;;2.58;;
32894;SDS011;19251;49.484;8.260;2022-11-18T20:49:26;8.18;;;3.03;;
32894;SDS011;19251;49.484;8.260;2022-11-18T20:54:29;6.40;;;3.05;;
32894;SDS011;19251;49.484;8.260;2022-11-18T20:59:31;5.07;;;2.67;;
32894;SDS011;19251;49.484;8.260;2022-11-18T21:04:33;2.73;;;1.53;;
32894;SDS011;19251;49.484;8.260;2022-11-18T21:09:35;4.33;;;1.10;;
32894;SDS011;19251;49.484;8.260;2022-11-18T21:14:37;6.05;;;1.70;;
32894;SDS011;19251;49.484;8.260;2022-11-18T21:19:39;7.62;;;1.92;;
32894;SDS011;19251;49.484;8.260;2022-11-18T21:24:48;7.50;;;1.75;;
32894;SDS011;19251;49.484;8.260;2022-11-18T21:29:50;5.75;;;1.77;;
32894;SDS011;19251;49.484;8.260;2022-11-18T21:34:52;5.12;;;1.80;;
32894;SDS011;19251;49.484;8.260;2022-11-18T21:39:54;5.12;;;1.37;;
32894;SDS011;19251;49.484;8.260;2022-11-18T21:44:56;5.72;;;1.58;;
32894;SDS011;19251;49.484;8.260;2022-11-18T21:49:59;3.45;;;2.03;;
32894;SDS011;19251;49.484;8.260;2022-11-18T21:55:01;6.33;;;2.10;;
32894;SDS011;19251;49.484;8.260;2022-11-18T22:00:03;10.60;;;2.05;;
32894;SDS011;19251;49.484;8.260;2022-11-18T22:05:11;5.10;;;1.90;;
32894;SDS011;19251;49.484;8.260;2022-11-18T22:10:15;4.80;;;1.85;;
32894;SDS011;19251;49.484;8.260;2022-11-18T22:15:19;4.45;;;1.50;;
32894;SDS011;19251;49.484;8.260;2022-11-18T22:20:21;4.57;;;2.28;;
32894;SDS011;19251;49.484;8.260;2022-11-18T22:25:23;3.92;;;1.67;;
32894;SDS011;19251;49.484;8.260;2022-11-18T22:30:26;12.73;;;2.10;;
32894;SDS011;19251;49.484;8.260;2022-11-18T22:35:28;7.68;;;1.40;;
32894;SDS011;19251;49.484;8.260;2022-11-18T22:40:31;5.55;;;2.05;;
32894;SDS011;19251;49.484;8.260;2022-11-18T22:45:33;10.05;;;1.52;;
32894;SDS011;19251;49.484;8.260;2022-11-18T22:50:35;2.78;;;1.35;;
32894;SDS011;19251;49.484;8.260;2022-11-18T22:55:37;3.17;;;1.20;;
32894;SDS011;19251;49.484;8.260;2022-11-18T23:00:40;3.33;;;1.50;;
32894;SDS011;19251;49.484;8.260;2022-11-18T23:05:44;2.53;;;1.27;;
32894;SDS011;19251;49.484;8.260;2022-11-18T23:10:47;6.15;;;1.90;;
32894;SDS011;19251;49.484;8.260;2022-11-18T23:15:49;6.70;;;1.85;;
32894;SDS011;19251;49.484;8.260;2022-11-18T23:20:51;26.25;;;2.20;;
32894;SDS011;19251;49.484;8.260;2022-11-18T23:26:07;3.90;;;1.00;;
32894;SDS011;19251;49.484;8.260;2022-11-18T23:31:15;7.35;;;1.75;;
32894;SDS011;19251;49.484;8.260;2022-11-18T23:36:19;9.45;;;1.40;;
32894;SDS011;19251;49.484;8.260;2022-11-18T23:41:22;3.13;;;1.07;;
32894;SDS011;19251;49.484;8.260;2022-11-18T23:46:24;5.03;;;1.55;;
32894;SDS011;19251;49.484;8.260;2022-11-18T23:51:28;3.90;;;1.25;;
32894;SDS011;19251;49.484;8.260;2022-11-18T23:56:30;3.35;;;1.45;;
